Time;durP1;ratioP1;P1;durP2;ratioP2;P2;SDS_P1;SDS_P2;PMS_P1;PMS_P2;Temp;Humidity;BMP_temperature;BMP_pressure;BME280_temperature;BME280_humidity;BME280_pressure;Samples;Min_cycle;Max_cycle;Signal;HPM_P1;HPM_P2
2022/06/14 00:01:56;;;;;;;;;;;17.80;63.60;;;;;;5112319;28;19908;-60
2022/06/14 00:04:22;;;;;;;;;;;17.90;63.00;;;;;;5112306;28;19915;-58
2022/06/14 00:06:49;;;;;;;;;;;18.00;63.00;;;;;;5113004;28;19923;-62
2022/06/14 00:09:16;;;;;;;;;;;18.00;62.70;;;;;;5112588;28;20049;-59
2022/06/14 00:11:42;;;;;;;;;;;18.20;63.00;;;;;;5112692;28;19964;-54
2022/06/14 00:14:10;;;;;;;;;;;18.30;62.40;;;;;;5112599;28;19987;-58
2022/06/14 00:16:38;;;;;;;;;;;18.50;61.90;;;;;;5112758;28;20313;-57
2022/06/14 00:19:05;;;;;;;;;;;18.60;61.80;;;;;;5112438;28;20010;-51
2022/06/14 00:21:32;;;;;;;;;;;18.50;61.70;;;;;;5112233;28;19908;-49
2022/06/14 00:24:01;;;;;;;;;;;18.50;61.20;;;;;;5112055;28;19907;-57
2022/06/14 00:26:28;;;;;;;;;;;18.60;61.80;;;;;;5112381;28;20287;-57
2022/06/14 00:28:54;;;;;;;;;;;18.80;61.60;;;;;;5112545;28;19908;-55
2022/06/14 00:31:23;;;;;;;;;;;18.80;61.00;;;;;;5112169;28;19915;-59
2022/06/14 00:33:50;;;;;;;;;;;19.00;60.40;;;;;;5112396;28;19908;-56
2022/06/14 00:36:21;;;;;;;;;;;19.10;60.50;;;;;;5112646;28;19915;-55
2022/06/14 00:38:48;;;;;;;;;;;19.20;60.40;;;;;;5112638;28;19922;-57
2022/06/14 00:41:24;;;;;;;;;;;19.40;59.60;;;;;;5112563;28;19931;-50
2022/06/14 00:43:51;;;;;;;;;;;19.30;60.60;;;;;;5112429;28;19994;-56
2022/06/14 00:46:21;;;;;;;;;;;19.40;60.50;;;;;;5112448;28;19920;-59
2022/06/14 00:49:07;;;;;;;;;;;19.40;60.50;;;;;;5111237;28;19984;-60
2022/06/14 00:51:37;;;;;;;;;;;19.60;60.20;;;;;;5104032;28;20303;-54
2022/06/14 00:54:24;;;;;;;;;;;19.50;60.00;;;;;;5115526;28;19908;-54
2022/06/14 00:57:00;;;;;;;;;;;19.60;60.00;;;;;;5115715;28;20285;-59
2022/06/14 00:59:35;;;;;;;;;;;19.70;59.80;;;;;;5116111;28;19908;-53
2022/06/14 01:02:09;;;;;;;;;;;19.60;59.40;;;;;;5116634;28;19962;-52
2022/06/14 01:04:36;;;;;;;;;;;19.50;59.30;;;;;;5115872;27;20327;-38
2022/06/14 01:07:09;;;;;;;;;;;19.20;61.40;;;;;;5115833;27;20346;-38
2022/06/14 01:09:37;;;;;;;;;;;18.70;60.20;;;;;;5115794;28;19920;-46
2022/06/14 01:12:10;;;;;;;;;;;18.60;61.00;;;;;;5116075;28;19953;-47
2022/06/14 01:14:42;;;;;;;;;;;18.50;60.60;;;;;;5096431;28;19912;-44
2022/06/14 01:17:11;;;;;;;;;;;18.50;61.90;;;;;;5090204;28;19995;-50
2022/06/14 01:19:38;;;;;;;;;;;18.60;61.60;;;;;;5095528;28;19919;-44
2022/06/14 01:22:07;;;;;;;;;;;18.60;61.70;;;;;;5093345;28;19954;-49
2022/06/14 01:24:35;;;;;;;;;;;18.70;63.60;;;;;;5092579;28;20331;-46
2022/06/14 01:27:04;;;;;;;;;;;19.00;62.30;;;;;;5095002;28;19961;-51
2022/06/14 01:29:32;;;;;;;;;;;19.20;60.90;;;;;;5095032;28;19931;-54
2022/06/14 01:32:01;;;;;;;;;;;19.40;62.10;;;;;;5095272;28;19955;-50
2022/06/14 01:34:30;;;;;;;;;;;19.60;60.80;;;;;;5089465;28;19962;-52
2022/06/14 01:37:00;;;;;;;;;;;19.80;60.00;;;;;;5094606;28;20305;-53
2022/06/14 01:39:27;;;;;;;;;;;20.10;60.00;;;;;;5094292;28;19916;-49
2022/06/14 01:41:53;;;;;;;;;;;20.20;59.60;;;;;;5094131;28;19924;-51
2022/06/14 01:44:23;;;;;;;;;;;20.50;59.30;;;;;;5093521;28;19919;-49
2022/06/14 01:46:50;;;;;;;;;;;20.60;58.30;;;;;;5095006;28;19917;-54
2022/06/14 01:52:10;;;;;;;;;;;20.80;58.50;;;;;;5094965;28;19914;-49
2022/06/14 01:54:55;;;;;;;;;;;20.80;58.60;;;;;;5095176;28;20006;-49
2022/06/14 01:57:30;;;;;;;;;;;20.90;58.50;;;;;;5091082;28;19923;-56
2022/06/14 02:00:07;;;;;;;;;;;20.90;58.50;;;;;;5094690;28;19930;-54
2022/06/14 02:02:33;;;;;;;;;;;21.10;57.80;;;;;;5090532;28;19965;-58
2022/06/14 02:05:03;;;;;;;;;;;21.10;57.90;;;;;;5094341;28;19948;-56
2022/06/14 02:07:41;;;;;;;;;;;21.10;58.00;;;;;;5094328;28;19908;-55
2022/06/14 02:10:11;;;;;;;;;;;21.20;57.20;;;;;;5094508;28;20003;-60
2022/06/14 02:12:41;;;;;;;;;;;21.20;57.40;;;;;;5094036;28;19919;-59
2022/06/14 02:15:39;;;;;;;;;;;21.30;57.20;;;;;;5094305;28;20420;-58
2022/06/14 02:18:07;;;;;;;;;;;21.20;58.10;;;;;;5060462;28;19912;-54
2022/06/14 02:20:56;;;;;;;;;;;21.10;58.30;;;;;;5093584;28;19915;-58
2022/06/14 02:23:24;;;;;;;;;;;21.10;57.90;;;;;;5093823;28;20359;-53
2022/06/14 02:25:57;;;;;;;;;;;21.30;58.00;;;;;;5094131;28;20389;-57
2022/06/14 02:28:36;;;;;;;;;;;21.30;57.80;;;;;;5093617;28;19909;-53
2022/06/14 02:31:09;;;;;;;;;;;21.40;57.30;;;;;;5093472;28;19909;-60
2022/06/14 02:33:38;;;;;;;;;;;21.50;57.20;;;;;;5094192;28;20039;-60
2022/06/14 02:36:14;;;;;;;;;;;21.30;57.20;;;;;;5093935;28;19908;-59
2022/06/14 02:38:50;;;;;;;;;;;21.50;57.70;;;;;;5093612;28;19908;-60
2022/06/14 02:41:21;;;;;;;;;;;21.10;58.10;;;;;;5093897;28;20413;-58
2022/06/14 02:43:55;;;;;;;;;;;21.10;58.70;;;;;;5093428;28;19935;-60
2022/06/14 02:46:29;;;;;;;;;;;21.20;58.40;;;;;;5092793;28;19970;-59
2022/06/14 02:48:59;;;;;;;;;;;21.40;57.80;;;;;;5093331;28;19909;-61
2022/06/14 02:51:32;;;;;;;;;;;21.40;58.20;;;;;;5093540;28;19915;-61
2022/06/14 02:54:10;;;;;;;;;;;21.50;57.60;;;;;;5093845;28;19916;-60
2022/06/14 02:56:44;;;;;;;;;;;21.50;57.90;;;;;;5093420;28;20300;-58
2022/06/14 02:59:20;;;;;;;;;;;21.80;57.40;;;;;;5093146;28;20000;-56
2022/06/14 03:01:57;;;;;;;;;;;22.10;56.30;;;;;;5093201;28;19908;-60
2022/06/14 03:04:47;;;;;;;;;;;22.40;56.10;;;;;;5092988;28;19908;-54
2022/06/14 03:07:32;;;;;;;;;;;22.30;56.50;;;;;;5085108;28;20483;-54
2022/06/14 03:09:59;;;;;;;;;;;22.10;56.90;;;;;;5093396;28;19973;-58
2022/06/14 03:12:36;;;;;;;;;;;22.20;56.80;;;;;;5092503;28;19952;-59
2022/06/14 03:15:11;;;;;;;;;;;22.10;56.50;;;;;;5092972;28;19908;-56
2022/06/14 03:17:56;;;;;;;;;;;22.30;56.20;;;;;;5093231;28;20295;-60
2022/06/14 03:20:41;;;;;;;;;;;22.60;55.80;;;;;;5092890;28;20007;-57
2022/06/14 03:23:10;;;;;;;;;;;22.40;56.10;;;;;;5093382;28;19962;-60
2022/06/14 03:25:58;;;;;;;;;;;22.50;55.70;;;;;;5092903;28;19912;-57
2022/06/14 03:28:27;;;;;;;;;;;22.50;56.20;;;;;;5092326;28;19927;-60
2022/06/14 03:30:56;;;;;;;;;;;22.50;56.20;;;;;;5093020;28;19916;-61
2022/06/14 03:33:49;;;;;;;;;;;22.20;57.10;;;;;;5092759;28;19908;-57
2022/06/14 03:36:16;;;;;;;;;;;22.30;57.10;;;;;;5062124;28;20404;-59
2022/06/14 03:38:49;;;;;;;;;;;22.30;56.90;;;;;;5074060;28;19908;-56
2022/06/14 03:41:18;;;;;;;;;;;22.00;57.80;;;;;;5093133;28;19912;-59
2022/06/14 03:43:45;;;;;;;;;;;22.10;57.60;;;;;;5092720;28;20000;-60
2022/06/14 03:46:15;;;;;;;;;;;22.00;58.20;;;;;;5092399;28;20489;-61
2022/06/14 03:48:44;;;;;;;;;;;21.90;58.70;;;;;;5092402;28;19954;-56
2022/06/14 03:51:31;;;;;;;;;;;22.00;57.70;;;;;;5093031;28;19999;-53
2022/06/14 03:54:10;;;;;;;;;;;21.90;57.60;;;;;;5092733;28;19965;-53
2022/06/14 03:56:43;;;;;;;;;;;21.60;58.70;;;;;;5092181;28;19915;-47
2022/06/14 03:59:09;;;;;;;;;;;21.50;58.90;;;;;;5091626;28;19908;-56
2022/06/14 04:01:46;;;;;;;;;;;21.30;59.90;;;;;;5092200;28;19992;-50
2022/06/14 04:04:30;;;;;;;;;;;21.20;60.70;;;;;;5092218;28;19912;-50
2022/06/14 04:07:15;;;;;;;;;;;21.00;60.20;;;;;;5086764;28;19964;-53
2022/06/14 04:09:45;;;;;;;;;;;21.00;60.20;;;;;;5089575;28;19981;-50
2022/06/14 04:12:26;;;;;;;;;;;20.90;60.60;;;;;;5091617;28;19915;-59
2022/06/14 04:15:09;;;;;;;;;;;20.90;60.40;;;;;;5090954;28;19912;-56
2022/06/14 04:17:42;;;;;;;;;;;20.80;60.20;;;;;;5089285;28;20301;-56
2022/06/14 04:20:30;;;;;;;;;;;20.70;60.90;;;;;;5090203;28;20272;-53
2022/06/14 04:23:15;;;;;;;;;;;20.70;60.90;;;;;;5090768;28;19969;-56
2022/06/14 04:25:53;;;;;;;;;;;20.40;63.40;;;;;;5093989;28;19916;-60
2022/06/14 04:28:19;;;;;;;;;;;20.40;64.10;;;;;;5094316;28;19908;-59
2022/06/14 04:30:58;;;;;;;;;;;20.50;62.50;;;;;;5096275;28;19916;-60
2022/06/14 04:33:41;;;;;;;;;;;20.70;62.70;;;;;;5094127;28;19912;-61
2022/06/14 04:36:11;;;;;;;;;;;20.80;62.40;;;;;;5095763;28;20383;-60
2022/06/14 04:39:02;;;;;;;;;;;21.10;60.20;;;;;;5095403;28;19908;-60
2022/06/14 04:41:35;;;;;;;;;;;21.20;61.60;;;;;;5089907;28;19919;-58
2022/06/14 04:44:13;;;;;;;;;;;21.30;60.20;;;;;;5095193;28;19916;-61
2022/06/14 04:46:42;;;;;;;;;;;21.40;59.70;;;;;;5094696;28;19928;-56
2022/06/14 04:49:21;;;;;;;;;;;21.40;61.00;;;;;;5093799;28;19912;-58
2022/06/14 04:51:47;;;;;;;;;;;21.30;59.40;;;;;;5095260;28;19908;-61
2022/06/14 04:54:18;;;;;;;;;;;21.20;61.10;;;;;;5095572;28;19954;-58
2022/06/14 04:56:48;;;;;;;;;;;21.20;61.40;;;;;;5095216;28;19923;-57
2022/06/14 04:59:17;;;;;;;;;;;21.30;60.80;;;;;;5095845;28;19908;-57
2022/06/14 05:01:46;;;;;;;;;;;21.30;61.20;;;;;;5095761;28;19908;-57
2022/06/14 05:04:17;;;;;;;;;;;21.40;60.80;;;;;;5095572;28;19908;-59
2022/06/14 05:06:56;;;;;;;;;;;21.40;61.10;;;;;;5095364;28;20358;-56
2022/06/14 05:09:32;;;;;;;;;;;21.50;60.50;;;;;;5095449;28;19920;-51
2022/06/14 05:12:18;;;;;;;;;;;21.50;60.20;;;;;;5095274;28;19920;-52
2022/06/14 05:15:11;;;;;;;;;;;21.40;59.80;;;;;;5094753;28;19908;-54
2022/06/14 05:17:44;;;;;;;;;;;21.20;59.90;;;;;;5070076;28;19961;-57
2022/06/14 05:20:14;;;;;;;;;;;20.90;60.20;;;;;;5095621;28;19940;-57
2022/06/14 05:22:58;;;;;;;;;;;20.70;60.20;;;;;;5095016;28;19920;-56
2022/06/14 05:25:27;;;;;;;;;;;20.50;61.30;;;;;;5094938;28;20018;-57
2022/06/14 05:28:03;;;;;;;;;;;20.10;62.70;;;;;;5095112;28;20278;-54
2022/06/14 05:30:37;;;;;;;;;;;19.90;63.20;;;;;;5094917;28;19961;-54
2022/06/14 05:33:08;;;;;;;;;;;19.80;64.10;;;;;;5076935;28;19912;-56
2022/06/14 05:35:35;;;;;;;;;;;19.60;63.70;;;;;;5094597;28;19908;-56
2022/06/14 05:38:14;;;;;;;;;;;19.60;64.20;;;;;;5092996;28;20325;-54
2022/06/14 05:40:54;;;;;;;;;;;19.50;64.50;;;;;;5094346;28;19908;-57
2022/06/14 05:43:34;;;;;;;;;;;19.30;63.90;;;;;;5095006;28;20270;-55
2022/06/14 05:46:08;;;;;;;;;;;19.10;65.40;;;;;;5094673;28;19918;-55
2022/06/14 05:48:47;;;;;;;;;;;18.80;66.00;;;;;;5094344;28;19909;-48
2022/06/14 05:51:15;;;;;;;;;;;18.80;66.60;;;;;;5076819;28;20041;-59
2022/06/14 05:53:47;;;;;;;;;;;18.60;67.50;;;;;;5094176;28;19953;-49
2022/06/14 05:56:13;;;;;;;;;;;18.30;68.30;;;;;;5094730;28;19919;-54
2022/06/14 05:59:02;;;;;;;;;;;18.20;68.80;;;;;;5093803;28;19908;-49
2022/06/14 06:01:58;;;;;;;;;;;18.00;69.30;;;;;;5094663;28;19919;-56
2022/06/14 06:04:45;;;;;;;;;;;17.90;70.10;;;;;;5080834;28;20384;-55
2022/06/14 06:07:13;;;;;;;;;;;17.80;70.20;;;;;;5094097;28;20346;-58
2022/06/14 06:09:49;;;;;;;;;;;17.70;69.90;;;;;;5094245;28;19920;-56
2022/06/14 06:12:28;;;;;;;;;;;17.80;70.10;;;;;;5094293;28;20259;-58
2022/06/14 06:15:02;;;;;;;;;;;17.80;70.20;;;;;;5094233;28;19912;-55
2022/06/14 06:17:37;;;;;;;;;;;17.70;70.50;;;;;;5094211;28;19909;-58
2022/06/14 06:20:13;;;;;;;;;;;17.60;70.90;;;;;;5094105;28;20359;-58
2022/06/14 06:22:44;;;;;;;;;;;17.50;71.60;;;;;;5093443;28;19909;-55
2022/06/14 06:25:13;;;;;;;;;;;17.40;71.80;;;;;;5094129;28;20007;-59
2022/06/14 06:28:00;;;;;;;;;;;17.30;72.40;;;;;;5093079;28;20320;-58
2022/06/14 06:30:32;;;;;;;;;;;17.30;72.80;;;;;;5093760;28;19974;-54
2022/06/14 06:32:59;;;;;;;;;;;17.30;73.10;;;;;;5094087;28;19912;-54
2022/06/14 06:35:31;;;;;;;;;;;17.20;73.30;;;;;;5093783;28;19908;-60
2022/06/14 06:38:10;;;;;;;;;;;17.10;73.50;;;;;;5093674;28;19955;-60
2022/06/14 06:41:49;;;;;;;;;;;17.10;73.80;;;;;;5093435;28;20017;-54
2022/06/14 06:43:24;;;;;;;;;;;17.00;74.30;;;;;;5093871;28;19971;-58
2022/06/14 06:45:52;;;;;;;;;;;16.90;74.50;;;;;;5093596;28;20003;-58
2022/06/14 06:48:29;;;;;;;;;;;16.90;74.80;;;;;;5093373;28;20554;-58
2022/06/14 06:50:59;;;;;;;;;;;16.80;75.10;;;;;;5092950;28;20351;-59
2022/06/14 06:53:30;;;;;;;;;;;16.80;75.70;;;;;;5093363;28;19912;-56
2022/06/14 06:55:59;;;;;;;;;;;16.70;75.80;;;;;;5093604;28;20355;-50
2022/06/14 06:58:26;;;;;;;;;;;16.60;76.30;;;;;;5092712;28;20370;-59
2022/06/14 07:01:01;;;;;;;;;;;16.60;75.90;;;;;;5093498;28;19912;-56
2022/06/14 07:03:42;;;;;;;;;;;16.60;76.80;;;;;;5092871;28;20013;-59
2022/06/14 07:06:14;;;;;;;;;;;16.50;77.10;;;;;;5074417;28;20363;-60
2022/06/14 07:08:44;;;;;;;;;;;16.50;76.60;;;;;;5091990;28;20354;-58
2022/06/14 07:11:15;;;;;;;;;;;16.50;76.80;;;;;;5093418;28;19996;-59
2022/06/14 07:13:51;;;;;;;;;;;16.40;77.60;;;;;;5093284;28;20290;-59
2022/06/14 07:16:27;;;;;;;;;;;16.40;77.20;;;;;;5093443;28;19908;-55
2022/06/14 07:18:54;;;;;;;;;;;16.30;77.70;;;;;;5092893;28;20282;-55
2022/06/14 07:21:32;;;;;;;;;;;16.30;77.90;;;;;;5088011;28;20407;-50
2022/06/14 07:23:59;;;;;;;;;;;16.20;78.20;;;;;;5072537;28;19912;-57
2022/06/14 07:26:30;;;;;;;;;;;16.20;78.60;;;;;;5071999;28;20011;-57
2022/06/14 07:29:04;;;;;;;;;;;16.20;78.90;;;;;;5072555;28;19909;-59
2022/06/14 07:31:57;;;;;;;;;;;16.20;79.20;;;;;;5072494;28;20386;-58
2022/06/14 07:34:24;;;;;;;;;;;16.20;78.80;;;;;;5068624;28;19912;-53
2022/06/14 07:36:54;;;;;;;;;;;16.20;78.20;;;;;;5072693;28;19908;-59
2022/06/14 07:39:24;;;;;;;;;;;16.10;78.70;;;;;;5072415;28;19940;-54
2022/06/14 07:41:51;;;;;;;;;;;16.10;78.50;;;;;;5072079;28;19986;-57
2022/06/14 07:44:18;;;;;;;;;;;16.10;78.60;;;;;;5072758;28;19916;-57
2022/06/14 07:46:51;;;;;;;;;;;16.10;79.00;;;;;;5072307;28;19917;-59
2022/06/14 07:49:24;;;;;;;;;;;16.10;78.90;;;;;;5071741;28;20279;-54
2022/06/14 07:51:54;;;;;;;;;;;16.00;79.10;;;;;;5073100;28;20026;-55
2022/06/14 07:54:36;;;;;;;;;;;16.00;80.40;;;;;;5072664;28;20259;-54
2022/06/14 07:57:22;;;;;;;;;;;16.00;80.10;;;;;;5054284;28;19908;-55
2022/06/14 07:59:52;;;;;;;;;;;16.00;80.20;;;;;;5071935;28;19913;-58
2022/06/14 08:02:19;;;;;;;;;;;16.00;80.10;;;;;;5076549;28;19912;-59
2022/06/14 08:04:48;;;;;;;;;;;16.00;80.80;;;;;;5075803;28;20069;-53
2022/06/14 08:07:19;;;;;;;;;;;16.00;81.00;;;;;;5076196;28;19923;-52
2022/06/14 08:10:01;;;;;;;;;;;15.90;81.00;;;;;;5096140;28;19978;-56
2022/06/14 08:12:43;;;;;;;;;;;15.90;81.10;;;;;;5094594;28;20003;-56
2022/06/14 08:15:15;;;;;;;;;;;15.90;80.20;;;;;;5096490;28;19908;-51
2022/06/14 08:17:46;;;;;;;;;;;15.90;80.90;;;;;;5096637;28;19908;-52
2022/06/14 08:20:20;;;;;;;;;;;15.80;80.70;;;;;;5096924;28;19931;-51
2022/06/14 08:22:48;;;;;;;;;;;15.80;80.70;;;;;;5096575;28;20050;-51
2022/06/14 08:25:22;;;;;;;;;;;15.80;81.00;;;;;;5095982;28;19988;-53
2022/06/14 08:27:52;;;;;;;;;;;15.80;80.40;;;;;;5096303;28;19916;-52
2022/06/14 08:30:26;;;;;;;;;;;15.70;81.00;;;;;;5096466;28;20000;-57
2022/06/14 08:32:59;;;;;;;;;;;15.70;80.50;;;;;;5094837;28;19969;-49
2022/06/14 08:35:34;;;;;;;;;;;15.70;80.30;;;;;;5096536;28;19940;-56
2022/06/14 08:38:01;;;;;;;;;;;15.70;81.20;;;;;;5096644;28;19908;-59
2022/06/14 08:40:46;;;;;;;;;;;15.60;81.20;;;;;;5095685;28;19916;-47
2022/06/14 08:43:16;;;;;;;;;;;15.60;81.10;;;;;;5096247;28;19908;-56
2022/06/14 08:45:46;;;;;;;;;;;15.60;80.90;;;;;;5096076;28;20305;-54
2022/06/14 08:48:21;;;;;;;;;;;15.60;81.20;;;;;;5096522;28;19931;-56
2022/06/14 08:50:57;;;;;;;;;;;15.60;81.40;;;;;;5096048;28;19909;-51
2022/06/14 08:53:27;;;;;;;;;;;15.60;81.20;;;;;;5095835;28;19957;-52
2022/06/14 08:56:12;;;;;;;;;;;15.60;81.40;;;;;;5095355;28;20271;-48
2022/06/14 08:58:47;;;;;;;;;;;15.50;80.90;;;;;;5095908;28;19948;-58
2022/06/14 09:01:20;;;;;;;;;;;15.50;81.40;;;;;;5095633;28;19950;-57
2022/06/14 09:04:05;;;;;;;;;;;15.50;81.10;;;;;;5096068;28;19997;-57
2022/06/14 09:06:38;;;;;;;;;;;15.40;80.80;;;;;;5095771;28;19984;-57
2022/06/14 09:09:07;;;;;;;;;;;15.40;81.30;;;;;;5096002;28;19920;-49
2022/06/14 09:11:40;;;;;;;;;;;15.40;81.90;;;;;;5095701;28;19908;-51
2022/06/14 09:14:42;;;;;;;;;;;15.40;81.20;;;;;;5094380;28;20294;-55
2022/06/14 09:17:09;;;;;;;;;;;15.40;81.50;;;;;;5053285;28;19946;-52
2022/06/14 09:19:41;;;;;;;;;;;15.40;81.60;;;;;;5087383;28;19948;-53
2022/06/14 09:22:14;;;;;;;;;;;15.40;81.10;;;;;;5096204;28;20081;-57
2022/06/14 09:24:51;;;;;;;;;;;15.40;81.70;;;;;;5095424;28;19908;-59
2022/06/14 09:27:33;;;;;;;;;;;15.30;81.00;;;;;;5095728;28;20359;-57
2022/06/14 09:30:02;;;;;;;;;;;15.30;81.90;;;;;;5095308;28;19912;-59
2022/06/14 09:35:41;;;;;;;;;;;15.30;81.70;;;;;;5095907;28;20320;-57
2022/06/14 09:38:08;;;;;;;;;;;15.30;81.70;;;;;;5095563;28;19943;-53
2022/06/14 09:40:43;;;;;;;;;;;15.30;81.70;;;;;;5095164;28;19908;-55
2022/06/14 09:43:11;;;;;;;;;;;15.30;81.20;;;;;;5095308;28;19915;-59
2022/06/14 09:45:54;;;;;;;;;;;15.20;81.10;;;;;;5095481;28;19919;-59
2022/06/14 09:48:33;;;;;;;;;;;15.20;81.40;;;;;;5095482;28;19908;-60
2022/06/14 09:51:02;;;;;;;;;;;15.20;81.40;;;;;;5095347;28;19908;-59
2022/06/14 09:53:53;;;;;;;;;;;15.20;81.10;;;;;;5094888;28;19998;-60
2022/06/14 09:56:20;;;;;;;;;;;15.20;81.10;;;;;;5095247;28;19930;-57
2022/06/14 09:59:04;;;;;;;;;;;15.20;81.10;;;;;;5094890;28;19908;-57
2022/06/14 10:01:49;;;;;;;;;;;15.10;81.10;;;;;;5095054;28;20278;-58
2022/06/14 10:04:22;;;;;;;;;;;15.10;81.00;;;;;;5094645;28;19912;-55
2022/06/14 10:06:52;;;;;;;;;;;15.10;81.00;;;;;;5093898;28;19920;-59
2022/06/14 10:09:32;;;;;;;;;;;15.10;81.30;;;;;;5094658;28;19930;-59
2022/06/14 10:12:02;;;;;;;;;;;15.10;81.10;;;;;;5094684;28;19919;-53
2022/06/14 10:14:35;;;;;;;;;;;15.10;81.20;;;;;;5094649;28;19916;-57
2022/06/14 10:17:27;;;;;;;;;;;15.00;81.20;;;;;;5095015;28;19999;-59
2022/06/14 10:19:54;;;;;;;;;;;15.00;81.40;;;;;;5092694;28;19908;-56
2022/06/14 10:22:21;;;;;;;;;;;15.10;81.20;;;;;;5094016;28;19908;-54
2022/06/14 10:25:20;;;;;;;;;;;15.00;81.30;;;;;;5093891;28;19908;-58
2022/06/14 10:28:11;;;;;;;;;;;15.00;82.40;;;;;;5071714;28;20058;-56
2022/06/14 10:30:38;;;;;;;;;;;15.00;81.80;;;;;;5094169;28;19943;-58
2022/06/14 10:33:31;;;;;;;;;;;15.00;81.90;;;;;;5094249;28;19924;-55
2022/06/14 10:36:13;;;;;;;;;;;15.00;81.80;;;;;;5094369;28;19943;-54
2022/06/14 10:38:57;;;;;;;;;;;15.00;82.10;;;;;;5094105;28;19991;-59
2022/06/14 10:41:35;;;;;;;;;;;15.00;82.00;;;;;;5094045;28;19908;-58
2022/06/14 10:44:02;;;;;;;;;;;15.00;82.60;;;;;;5094470;28;20345;-56
2022/06/14 10:46:30;;;;;;;;;;;15.00;82.40;;;;;;5093635;28;19938;-55
2022/06/14 10:49:09;;;;;;;;;;;14.90;82.20;;;;;;5094468;28;19915;-57
2022/06/14 10:51:46;;;;;;;;;;;15.00;82.30;;;;;;5094119;28;19915;-53
2022/06/14 10:54:23;;;;;;;;;;;14.90;83.50;;;;;;5093937;28;19908;-58
2022/06/14 10:56:52;;;;;;;;;;;14.90;82.90;;;;;;5094304;28;20255;-57
2022/06/14 10:59:32;;;;;;;;;;;14.90;82.90;;;;;;5093863;28;20274;-57
2022/06/14 11:02:17;;;;;;;;;;;14.90;82.90;;;;;;5094303;28;19912;-57
2022/06/14 11:04:47;;;;;;;;;;;14.90;82.90;;;;;;5093749;28;19909;-58
2022/06/14 11:07:25;;;;;;;;;;;14.90;82.80;;;;;;5093325;28;19920;-55
2022/06/14 11:09:52;;;;;;;;;;;14.90;82.80;;;;;;5093869;28;20200;-57
2022/06/14 11:12:34;;;;;;;;;;;14.90;82.90;;;;;;5093931;28;20259;-60
2022/06/14 11:15:16;;;;;;;;;;;14.80;83.10;;;;;;5093615;28;19908;-60
2022/06/14 11:17:49;;;;;;;;;;;14.80;83.10;;;;;;5093755;28;19950;-59
2022/06/14 11:20:34;;;;;;;;;;;14.80;82.90;;;;;;5093851;28;20315;-59
2022/06/14 11:23:01;;;;;;;;;;;14.80;82.90;;;;;;5093557;28;20425;-57
2022/06/14 11:25:30;;;;;;;;;;;14.70;82.80;;;;;;5093395;28;20045;-60
2022/06/14 11:28:02;;;;;;;;;;;14.70;82.90;;;;;;5093439;28;20005;-58
2022/06/14 11:30:37;;;;;;;;;;;14.70;83.40;;;;;;5093522;28;19916;-59
2022/06/14 11:33:16;;;;;;;;;;;14.70;83.00;;;;;;5093585;28;19996;-57
2022/06/14 11:35:42;;;;;;;;;;;14.70;83.30;;;;;;5093326;28;20239;-58
2022/06/14 11:38:12;;;;;;;;;;;14.60;83.10;;;;;;5093346;28;20399;-55
2022/06/14 11:40:44;;;;;;;;;;;14.60;83.20;;;;;;5092916;28;19920;-58
2022/06/14 11:43:11;;;;;;;;;;;14.60;83.20;;;;;;5093516;28;20293;-58
2022/06/14 11:45:38;;;;;;;;;;;14.60;83.10;;;;;;5093113;28;19962;-60
2022/06/14 11:48:05;;;;;;;;;;;14.60;83.40;;;;;;5093158;28;19916;-62
2022/06/14 11:50:40;;;;;;;;;;;14.50;83.20;;;;;;5092514;28;19908;-59
2022/06/14 11:53:39;;;;;;;;;;;14.50;83.30;;;;;;5093393;28;19916;-58
2022/06/14 11:56:09;;;;;;;;;;;14.50;83.20;;;;;;5069533;28;19996;-60
2022/06/14 11:58:50;;;;;;;;;;;14.50;83.20;;;;;;5093146;28;20001;-58
2022/06/14 12:01:23;;;;;;;;;;;14.50;83.30;;;;;;5093092;28;20355;-59
2022/06/14 12:04:02;;;;;;;;;;;14.50;83.30;;;;;;5093229;28;20259;-58
2022/06/14 12:06:47;;;;;;;;;;;14.50;83.30;;;;;;5093141;28;20282;-57
2022/06/14 12:09:32;;;;;;;;;;;14.40;83.30;;;;;;5092648;28;19924;-61
2022/06/14 12:12:18;;;;;;;;;;;14.40;83.30;;;;;;5092514;28;19908;-59
2022/06/14 12:14:54;;;;;;;;;;;14.40;83.30;;;;;;5091325;28;19950;-58
2022/06/14 12:17:42;;;;;;;;;;;14.40;83.30;;;;;;5092614;28;20365;-56
2022/06/14 12:20:11;;;;;;;;;;;14.40;83.40;;;;;;5092750;28;19915;-58
2022/06/14 12:22:57;;;;;;;;;;;14.40;83.50;;;;;;5092807;28;19908;-60
2022/06/14 12:28:29;;;;;;;;;;;14.30;83.50;;;;;;5090682;28;20373;-51
2022/06/14 12:31:00;;;;;;;;;;;14.30;83.40;;;;;;5093172;28;19908;-61
2022/06/14 12:33:37;;;;;;;;;;;14.30;83.50;;;;;;5093149;28;20309;-58
2022/06/14 12:36:19;;;;;;;;;;;14.30;83.50;;;;;;5093053;28;19968;-57
2022/06/14 12:38:48;;;;;;;;;;;14.20;83.50;;;;;;5092764;28;20275;-59
2022/06/14 12:41:37;;;;;;;;;;;14.20;83.50;;;;;;5092717;28;20236;-58
2022/06/14 12:44:17;;;;;;;;;;;14.20;83.50;;;;;;5073331;28;19912;-58
2022/06/14 12:46:45;;;;;;;;;;;14.20;83.50;;;;;;5094324;28;19970;-58
2022/06/14 12:49:24;;;;;;;;;;;14.20;83.60;;;;;;5096910;28;20374;-53
2022/06/14 12:52:04;;;;;;;;;;;14.10;83.60;;;;;;5096690;28;20232;-60
2022/06/14 12:54:54;;;;;;;;;;;14.10;83.60;;;;;;5096053;28;19916;-52
2022/06/14 12:57:30;;;;;;;;;;;14.20;83.70;;;;;;5091066;28;20359;-56
2022/06/14 12:59:59;;;;;;;;;;;14.10;83.60;;;;;;5096456;28;19976;-57
2022/06/14 13:02:30;;;;;;;;;;;14.10;83.70;;;;;;5096508;28;19947;-48
2022/06/14 13:05:18;;;;;;;;;;;14.10;83.70;;;;;;5096708;28;19909;-46
2022/06/14 13:08:02;;;;;;;;;;;14.10;83.70;;;;;;5096052;28;19916;-52
2022/06/14 13:10:44;;;;;;;;;;;14.00;83.70;;;;;;5095817;28;19920;-45
2022/06/14 13:13:29;;;;;;;;;;;14.00;83.80;;;;;;5096384;28;19915;-51
2022/06/14 13:15:59;;;;;;;;;;;14.00;83.80;;;;;;5096060;28;20374;-58
2022/06/14 13:18:38;;;;;;;;;;;14.00;83.80;;;;;;5095933;28;19908;-53
2022/06/14 13:21:15;;;;;;;;;;;13.90;83.80;;;;;;5095976;28;19908;-53
2022/06/14 13:23:41;;;;;;;;;;;14.00;84.00;;;;;;5095863;28;19916;-57
2022/06/14 13:26:08;;;;;;;;;;;13.90;83.80;;;;;;5095743;28;19919;-55
2022/06/14 13:28:53;;;;;;;;;;;13.90;84.00;;;;;;5095654;28;20414;-53
2022/06/14 13:31:32;;;;;;;;;;;13.90;84.00;;;;;;5095980;28;19912;-57
2022/06/14 13:34:01;;;;;;;;;;;13.90;84.00;;;;;;5095873;28;19912;-45
2022/06/14 13:36:45;;;;;;;;;;;13.90;84.10;;;;;;5095557;28;20367;-53
2022/06/14 13:39:27;;;;;;;;;;;13.90;84.10;;;;;;5095506;28;20339;-56
2022/06/14 13:42:03;;;;;;;;;;;13.80;84.10;;;;;;5095719;28;19957;-56
2022/06/14 13:44:37;;;;;;;;;;;13.80;84.30;;;;;;5095789;28;19915;-55
2022/06/14 13:47:19;;;;;;;;;;;13.80;84.30;;;;;;5095459;28;20358;-58
2022/06/14 13:49:50;;;;;;;;;;;13.80;84.30;;;;;;5095532;28;19908;-56
2022/06/14 13:52:22;;;;;;;;;;;13.70;84.40;;;;;;5095636;28;19908;-56
2022/06/14 13:54:58;;;;;;;;;;;13.70;84.30;;;;;;5095159;28;19919;-56
2022/06/14 13:57:48;;;;;;;;;;;13.70;84.40;;;;;;5093406;28;19951;-58
2022/06/14 14:00:21;;;;;;;;;;;13.70;84.40;;;;;;5095379;28;20414;-59
2022/06/14 14:02:48;;;;;;;;;;;13.70;84.50;;;;;;5095114;28;19908;-58
2022/06/14 14:05:24;;;;;;;;;;;13.70;84.60;;;;;;5095171;28;19908;-55
2022/06/14 14:08:12;;;;;;;;;;;13.60;84.60;;;;;;5095128;28;19928;-58
2022/06/14 14:10:39;;;;;;;;;;;13.70;84.60;;;;;;5094833;28;19919;-56
2022/06/14 14:13:09;;;;;;;;;;;13.60;84.60;;;;;;5093879;28;19908;-60
2022/06/14 14:15:51;;;;;;;;;;;13.60;84.60;;;;;;5095083;28;19915;-49
2022/06/14 14:18:36;;;;;;;;;;;13.60;84.60;;;;;;5094916;28;19940;-55
2022/06/14 14:21:02;;;;;;;;;;;13.60;84.70;;;;;;5094948;28;19915;-56
2022/06/14 14:23:29;;;;;;;;;;;13.60;84.60;;;;;;5094974;28;19912;-49
2022/06/14 14:26:01;;;;;;;;;;;13.60;84.70;;;;;;5094690;28;20338;-53
2022/06/14 14:28:39;;;;;;;;;;;13.50;84.70;;;;;;5094534;28;19908;-55
2022/06/14 14:31:13;;;;;;;;;;;13.50;84.70;;;;;;5094595;28;19908;-56
2022/06/14 14:33:52;;;;;;;;;;;13.50;84.70;;;;;;5094676;28;20347;-52
2022/06/14 14:36:25;;;;;;;;;;;13.50;84.70;;;;;;5094718;28;19918;-54
2022/06/14 14:38:59;;;;;;;;;;;13.50;84.70;;;;;;5094165;28;20270;-56
2022/06/14 14:41:35;;;;;;;;;;;13.50;84.70;;;;;;5094544;28;20002;-58
2022/06/14 14:44:05;;;;;;;;;;;13.50;84.70;;;;;;5093198;28;20454;-60
2022/06/14 14:46:34;;;;;;;;;;;13.50;84.80;;;;;;5094191;28;20006;-59
2022/06/14 14:49:18;;;;;;;;;;;13.50;84.80;;;;;;5094428;28;19908;-59
2022/06/14 14:51:54;;;;;;;;;;;13.40;84.70;;;;;;5094044;28;19948;-58
2022/06/14 14:54:27;;;;;;;;;;;13.40;84.70;;;;;;5094479;28;19908;-60
2022/06/14 14:57:11;;;;;;;;;;;13.40;84.80;;;;;;5094377;28;19908;-61
2022/06/14 14:59:54;;;;;;;;;;;13.40;84.80;;;;;;5094257;28;20386;-61
2022/06/14 15:05:26;;;;;;;;;;;13.40;84.80;;;;;;5094647;28;19996;-60
2022/06/14 15:08:11;;;;;;;;;;;13.40;84.80;;;;;;5093987;28;20043;-61
2022/06/14 15:10:56;;;;;;;;;;;13.40;84.70;;;;;;5093400;28;19908;-60
2022/06/14 15:13:37;;;;;;;;;;;13.30;84.80;;;;;;5094395;28;19908;-61